sensor_id;sensor_type;location;lat;lon;timestamp;P1;durP1;ratioP1;P2;durP2;ratioP2
62947;SDS011;51940;52.126;-0.994;2022-10-16T00:00:38;8.40;;;1.50;;
62947;SDS011;51940;52.126;-0.994;2022-10-16T00:03:05;11.40;;;1.70;;
62947;SDS011;51940;52.126;-0.994;2022-10-16T00:05:31;7.80;;;1.60;;
62947;SDS011;51940;52.126;-0.994;2022-10-16T00:07:57;7.50;;;1.60;;
62947;SDS011;51940;52.126;-0.994;2022-10-16T00:10:23;10.60;;;1.90;;
62947;SDS011;51940;52.126;-0.994;2022-10-16T00:12:49;9.90;;;2.10;;
62947;SDS011;51940;52.126;-0.994;2022-10-16T00:15:15;6.10;;;1.60;;
62947;SDS011;51940;52.126;-0.994;2022-10-16T00:17:40;10.90;;;2.00;;
62947;SDS011;51940;52.126;-0.994;2022-10-16T00:20:06;10.50;;;1.70;;
62947;SDS011;51940;52.126;-0.994;2022-10-16T00:22:32;12.20;;;2.20;;
62947;SDS011;51940;52.126;-0.994;2022-10-16T00:24:58;6.90;;;1.80;;
62947;SDS011;51940;52.126;-0.994;2022-10-16T00:27:24;6.40;;;1.70;;
62947;SDS011;51940;52.126;-0.994;2022-10-16T00:29:49;15.40;;;2.20;;
62947;SDS011;51940;52.126;-0.994;2022-10-16T00:32:16;9.30;;;1.40;;
62947;SDS011;51940;52.126;-0.994;2022-10-16T00:34:42;5.40;;;1.20;;
62947;SDS011;51940;52.126;-0.994;2022-10-16T00:37:08;7.10;;;1.50;;
62947;SDS011;51940;52.126;-0.994;2022-10-16T00:39:33;10.20;;;1.80;;
62947;SDS011;51940;52.126;-0.994;2022-10-16T00:41:59;7.80;;;1.70;;
62947;SDS011;51940;52.126;-0.994;2022-10-16T00:47:11;9.10;;;1.50;;
62947;SDS011;51940;52.126;-0.994;2022-10-16T00:49:41;6.50;;;1.40;;
62947;SDS011;51940;52.126;-0.994;2022-10-16T00:52:06;10.40;;;2.30;;
62947;SDS011;51940;52.126;-0.994;2022-10-16T00:54:32;8.90;;;1.90;;
62947;SDS011;51940;52.126;-0.994;2022-10-16T00:57:00;6.40;;;1.70;;
62947;SDS011;51940;52.126;-0.994;2022-10-16T00:59:29;5.50;;;1.40;;
62947;SDS011;51940;52.126;-0.994;2022-10-16T01:01:59;7.20;;;2.10;;
62947;SDS011;51940;52.126;-0.994;2022-10-16T01:04:25;9.80;;;1.40;;
62947;SDS011;51940;52.126;-0.994;2022-10-16T01:07:12;7.50;;;1.70;;
62947;SDS011;51940;52.126;-0.994;2022-10-16T01:12:56;8.00;;;1.70;;
62947;SDS011;51940;52.126;-0.994;2022-10-16T01:21:31;8.50;;;1.70;;
62947;SDS011;51940;52.126;-0.994;2022-10-16T01:29:53;5.10;;;1.40;;
62947;SDS011;51940;52.126;-0.994;2022-10-16T01:38:03;6.20;;;1.50;;
62947;SDS011;51940;52.126;-0.994;2022-10-16T01:40:34;7.80;;;1.40;;
62947;SDS011;51940;52.126;-0.994;2022-10-16T01:43:08;8.40;;;1.90;;
62947;SDS011;51940;52.126;-0.994;2022-10-16T01:45:38;10.00;;;1.80;;
62947;SDS011;51940;52.126;-0.994;2022-10-16T01:48:05;11.50;;;1.80;;
62947;SDS011;51940;52.126;-0.994;2022-10-16T01:50:37;10.00;;;1.40;;
62947;SDS011;51940;52.126;-0.994;2022-10-16T01:53:06;9.10;;;2.10;;
62947;SDS011;51940;52.126;-0.994;2022-10-16T01:55:36;6.90;;;1.80;;
62947;SDS011;51940;52.126;-0.994;2022-10-16T01:58:08;6.30;;;1.90;;
62947;SDS011;51940;52.126;-0.994;2022-10-16T02:00:37;5.20;;;1.30;;
62947;SDS011;51940;52.126;-0.994;2022-10-16T02:03:04;12.40;;;1.50;;
62947;SDS011;51940;52.126;-0.994;2022-10-16T02:05:34;11.40;;;2.00;;
62947;SDS011;51940;52.126;-0.994;2022-10-16T02:08:06;11.10;;;2.20;;
62947;SDS011;51940;52.126;-0.994;2022-10-16T02:10:32;9.70;;;1.90;;
62947;SDS011;51940;52.126;-0.994;2022-10-16T02:13:02;9.70;;;1.80;;
62947;SDS011;51940;52.126;-0.994;2022-10-16T02:15:31;8.70;;;1.80;;
62947;SDS011;51940;52.126;-0.994;2022-10-16T02:17:56;9.50;;;1.80;;
62947;SDS011;51940;52.126;-0.994;2022-10-16T02:20:22;12.40;;;1.70;;
62947;SDS011;51940;52.126;-0.994;2022-10-16T02:22:52;8.10;;;2.10;;
62947;SDS011;51940;52.126;-0.994;2022-10-16T02:25:33;8.70;;;1.70;;
62947;SDS011;51940;52.126;-0.994;2022-10-16T02:28:04;8.00;;;1.80;;
62947;SDS011;51940;52.126;-0.994;2022-10-16T02:33:15;10.00;;;1.70;;
62947;SDS011;51940;52.126;-0.994;2022-10-16T02:35:43;10.60;;;1.90;;
62947;SDS011;51940;52.126;-0.994;2022-10-16T02:38:11;9.70;;;1.80;;
62947;SDS011;51940;52.126;-0.994;2022-10-16T02:40:39;9.80;;;2.20;;
62947;SDS011;51940;52.126;-0.994;2022-10-16T02:43:05;15.50;;;1.90;;
62947;SDS011;51940;52.126;-0.994;2022-10-16T02:45:30;9.50;;;1.90;;
62947;SDS011;51940;52.126;-0.994;2022-10-16T02:47:56;9.70;;;1.60;;
62947;SDS011;51940;52.126;-0.994;2022-10-16T02:50:21;9.00;;;1.70;;
62947;SDS011;51940;52.126;-0.994;2022-10-16T02:52:47;8.60;;;1.60;;
62947;SDS011;51940;52.126;-0.994;2022-10-16T02:55:12;11.70;;;1.90;;
62947;SDS011;51940;52.126;-0.994;2022-10-16T02:57:38;9.20;;;1.80;;
62947;SDS011;51940;52.126;-0.994;2022-10-16T03:00:05;9.10;;;1.80;;
62947;SDS011;51940;52.126;-0.994;2022-10-16T03:02:33;7.40;;;1.70;;
62947;SDS011;51940;52.126;-0.994;2022-10-16T03:04:58;10.00;;;1.70;;
62947;SDS011;51940;52.126;-0.994;2022-10-16T03:07:23;5.60;;;1.70;;
62947;SDS011;51940;52.126;-0.994;2022-10-16T03:09:49;10.20;;;1.70;;
62947;SDS011;51940;52.126;-0.994;2022-10-16T03:12:14;12.80;;;2.20;;
62947;SDS011;51940;52.126;-0.994;2022-10-16T03:14:39;13.40;;;1.90;;
62947;SDS011;51940;52.126;-0.994;2022-10-16T03:17:05;10.70;;;1.60;;
62947;SDS011;51940;52.126;-0.994;2022-10-16T03:19:31;9.00;;;1.90;;
62947;SDS011;51940;52.126;-0.994;2022-10-16T03:21:56;6.10;;;1.90;;
62947;SDS011;51940;52.126;-0.994;2022-10-16T03:24:22;6.30;;;1.40;;
62947;SDS011;51940;52.126;-0.994;2022-10-16T03:26:47;9.30;;;1.70;;
62947;SDS011;51940;52.126;-0.994;2022-10-16T03:29:13;12.00;;;1.70;;
62947;SDS011;51940;52.126;-0.994;2022-10-16T03:31:38;9.80;;;1.80;;
62947;SDS011;51940;52.126;-0.994;2022-10-16T03:34:04;5.80;;;1.40;;
62947;SDS011;51940;52.126;-0.994;2022-10-16T03:36:29;11.40;;;1.90;;
62947;SDS011;51940;52.126;-0.994;2022-10-16T03:38:54;6.50;;;1.80;;
62947;SDS011;51940;52.126;-0.994;2022-10-16T03:41:20;9.60;;;1.80;;
62947;SDS011;51940;52.126;-0.994;2022-10-16T03:43:45;13.00;;;2.20;;
62947;SDS011;51940;52.126;-0.994;2022-10-16T03:46:10;8.60;;;1.80;;
62947;SDS011;51940;52.126;-0.994;2022-10-16T03:48:36;12.80;;;1.70;;
62947;SDS011;51940;52.126;-0.994;2022-10-16T03:51:02;6.50;;;1.40;;
62947;SDS011;51940;52.126;-0.994;2022-10-16T03:53:27;6.80;;;1.80;;
62947;SDS011;51940;52.126;-0.994;2022-10-16T03:55:52;4.90;;;1.40;;
62947;SDS011;51940;52.126;-0.994;2022-10-16T03:58:18;4.90;;;1.50;;
62947;SDS011;51940;52.126;-0.994;2022-10-16T04:00:46;6.40;;;1.60;;
62947;SDS011;51940;52.126;-0.994;2022-10-16T04:03:12;8.90;;;1.90;;
62947;SDS011;51940;52.126;-0.994;2022-10-16T04:05:38;11.20;;;1.80;;
62947;SDS011;51940;52.126;-0.994;2022-10-16T04:08:04;4.60;;;1.20;;
62947;SDS011;51940;52.126;-0.994;2022-10-16T04:10:29;9.00;;;1.50;;
62947;SDS011;51940;52.126;-0.994;2022-10-16T04:12:55;5.60;;;1.50;;
62947;SDS011;51940;52.126;-0.994;2022-10-16T04:15:24;7.70;;;1.50;;
62947;SDS011;51940;52.126;-0.994;2022-10-16T04:17:50;10.40;;;2.30;;
62947;SDS011;51940;52.126;-0.994;2022-10-16T04:20:16;7.40;;;1.50;;
62947;SDS011;51940;52.126;-0.994;2022-10-16T04:22:42;12.80;;;1.90;;
62947;SDS011;51940;52.126;-0.994;2022-10-16T04:25:07;5.80;;;1.80;;
62947;SDS011;51940;52.126;-0.994;2022-10-16T04:27:33;6.10;;;1.60;;
62947;SDS011;51940;52.126;-0.994;2022-10-16T04:29:59;6.90;;;1.50;;
62947;SDS011;51940;52.126;-0.994;2022-10-16T04:32:25;11.10;;;2.20;;
62947;SDS011;51940;52.126;-0.994;2022-10-16T04:34:50;7.40;;;1.40;;
62947;SDS011;51940;52.126;-0.994;2022-10-16T04:37:16;7.90;;;1.80;;
62947;SDS011;51940;52.126;-0.994;2022-10-16T04:39:41;5.70;;;1.60;;
62947;SDS011;51940;52.126;-0.994;2022-10-16T04:42:06;11.20;;;1.90;;
62947;SDS011;51940;52.126;-0.994;2022-10-16T04:44:32;5.20;;;1.30;;
62947;SDS011;51940;52.126;-0.994;2022-10-16T04:46:57;7.40;;;1.50;;
62947;SDS011;51940;52.126;-0.994;2022-10-16T04:49:23;12.60;;;2.20;;
62947;SDS011;51940;52.126;-0.994;2022-10-16T04:51:48;7.40;;;1.80;;
62947;SDS011;51940;52.126;-0.994;2022-10-16T04:54:14;12.00;;;2.00;;
62947;SDS011;51940;52.126;-0.994;2022-10-16T04:56:39;8.00;;;1.70;;
62947;SDS011;51940;52.126;-0.994;2022-10-16T04:59:11;7.00;;;1.70;;
62947;SDS011;51940;52.126;-0.994;2022-10-16T05:01:37;6.80;;;1.50;;
62947;SDS011;51940;52.126;-0.994;2022-10-16T05:04:02;11.00;;;2.50;;
62947;SDS011;51940;52.126;-0.994;2022-10-16T05:06:28;6.10;;;1.50;;
62947;SDS011;51940;52.126;-0.994;2022-10-16T05:08:53;6.90;;;1.80;;
62947;SDS011;51940;52.126;-0.994;2022-10-16T05:11:18;10.10;;;2.00;;
62947;SDS011;51940;52.126;-0.994;2022-10-16T05:13:44;8.40;;;1.40;;
62947;SDS011;51940;52.126;-0.994;2022-10-16T05:16:09;7.00;;;1.60;;
62947;SDS011;51940;52.126;-0.994;2022-10-16T05:18:35;7.50;;;1.30;;
62947;SDS011;51940;52.126;-0.994;2022-10-16T05:21:00;11.10;;;1.60;;
62947;SDS011;51940;52.126;-0.994;2022-10-16T05:23:25;9.10;;;1.60;;
62947;SDS011;51940;52.126;-0.994;2022-10-16T05:25:55;7.70;;;1.80;;
62947;SDS011;51940;52.126;-0.994;2022-10-16T05:28:23;8.70;;;1.70;;
62947;SDS011;51940;52.126;-0.994;2022-10-16T05:30:53;6.80;;;1.50;;
62947;SDS011;51940;52.126;-0.994;2022-10-16T05:33:22;3.70;;;1.50;;
62947;SDS011;51940;52.126;-0.994;2022-10-16T05:35:50;10.50;;;2.10;;
62947;SDS011;51940;52.126;-0.994;2022-10-16T05:38:16;5.80;;;1.40;;
62947;SDS011;51940;52.126;-0.994;2022-10-16T05:40:42;7.80;;;1.60;;
62947;SDS011;51940;52.126;-0.994;2022-10-16T05:43:08;8.50;;;2.20;;
62947;SDS011;51940;52.126;-0.994;2022-10-16T05:45:33;8.70;;;1.80;;
62947;SDS011;51940;52.126;-0.994;2022-10-16T05:47:59;6.00;;;1.50;;
62947;SDS011;51940;52.126;-0.994;2022-10-16T05:50:25;5.30;;;1.50;;
62947;SDS011;51940;52.126;-0.994;2022-10-16T05:52:52;6.90;;;2.10;;
62947;SDS011;51940;52.126;-0.994;2022-10-16T05:55:17;10.00;;;1.70;;
62947;SDS011;51940;52.126;-0.994;2022-10-16T05:57:43;8.60;;;1.50;;
62947;SDS011;51940;52.126;-0.994;2022-10-16T06:00:09;6.80;;;1.70;;
62947;SDS011;51940;52.126;-0.994;2022-10-16T06:02:35;10.30;;;1.60;;
62947;SDS011;51940;52.126;-0.994;2022-10-16T06:05:00;6.70;;;2.00;;
62947;SDS011;51940;52.126;-0.994;2022-10-16T06:07:26;10.00;;;1.70;;
62947;SDS011;51940;52.126;-0.994;2022-10-16T06:09:52;8.00;;;1.70;;
62947;SDS011;51940;52.126;-0.994;2022-10-16T06:12:17;10.30;;;2.00;;
62947;SDS011;51940;52.126;-0.994;2022-10-16T06:14:44;8.70;;;1.90;;
62947;SDS011;51940;52.126;-0.994;2022-10-16T06:17:12;7.00;;;1.60;;
62947;SDS011;51940;52.126;-0.994;2022-10-16T06:19:39;6.90;;;1.50;;
62947;SDS011;51940;52.126;-0.994;2022-10-16T06:22:04;9.60;;;1.70;;
62947;SDS011;51940;52.126;-0.994;2022-10-16T06:24:30;9.60;;;2.00;;
62947;SDS011;51940;52.126;-0.994;2022-10-16T06:26:55;11.00;;;1.70;;
62947;SDS011;51940;52.126;-0.994;2022-10-16T06:29:21;7.90;;;1.70;;
62947;SDS011;51940;52.126;-0.994;2022-10-16T06:31:46;13.10;;;2.10;;
62947;SDS011;51940;52.126;-0.994;2022-10-16T06:34:12;9.30;;;1.60;;
62947;SDS011;51940;52.126;-0.994;2022-10-16T06:36:38;4.90;;;1.70;;
62947;SDS011;51940;52.126;-0.994;2022-10-16T06:39:04;10.30;;;1.70;;
62947;SDS011;51940;52.126;-0.994;2022-10-16T06:41:30;11.70;;;1.60;;
62947;SDS011;51940;52.126;-0.994;2022-10-16T06:43:56;6.40;;;1.50;;
62947;SDS011;51940;52.126;-0.994;2022-10-16T06:46:22;5.90;;;1.60;;
62947;SDS011;51940;52.126;-0.994;2022-10-16T06:48:49;9.90;;;1.80;;
62947;SDS011;51940;52.126;-0.994;2022-10-16T06:51:15;6.50;;;1.70;;
62947;SDS011;51940;52.126;-0.994;2022-10-16T06:53:47;7.30;;;1.30;;
62947;SDS011;51940;52.126;-0.994;2022-10-16T06:58:44;7.30;;;1.60;;
62947;SDS011;51940;52.126;-0.994;2022-10-16T07:01:10;5.80;;;1.70;;
62947;SDS011;51940;52.126;-0.994;2022-10-16T07:03:37;9.00;;;1.70;;
62947;SDS011;51940;52.126;-0.994;2022-10-16T07:06:07;7.00;;;1.70;;
62947;SDS011;51940;52.126;-0.994;2022-10-16T07:08:34;8.30;;;2.20;;
62947;SDS011;51940;52.126;-0.994;2022-10-16T07:11:02;6.90;;;1.70;;
62947;SDS011;51940;52.126;-0.994;2022-10-16T07:13:33;3.60;;;1.20;;
62947;SDS011;51940;52.126;-0.994;2022-10-16T07:16:09;8.30;;;1.50;;
62947;SDS011;51940;52.126;-0.994;2022-10-16T07:18:40;6.20;;;1.60;;
62947;SDS011;51940;52.126;-0.994;2022-10-16T07:23:41;11.70;;;1.50;;
62947;SDS011;51940;52.126;-0.994;2022-10-16T07:26:07;6.90;;;1.80;;
62947;SDS011;51940;52.126;-0.994;2022-10-16T07:28:34;5.50;;;1.70;;
62947;SDS011;51940;52.126;-0.994;2022-10-16T07:31:03;7.70;;;2.50;;
62947;SDS011;51940;52.126;-0.994;2022-10-16T07:33:30;9.70;;;1.70;;
62947;SDS011;51940;52.126;-0.994;2022-10-16T07:35:57;6.60;;;1.40;;
62947;SDS011;51940;52.126;-0.994;2022-10-16T07:38:22;8.30;;;1.60;;
62947;SDS011;51940;52.126;-0.994;2022-10-16T07:40:48;9.50;;;1.90;;
62947;SDS011;51940;52.126;-0.994;2022-10-16T07:43:24;8.50;;;2.20;;
62947;SDS011;51940;52.126;-0.994;2022-10-16T07:45:50;8.40;;;1.70;;
62947;SDS011;51940;52.126;-0.994;2022-10-16T07:48:16;6.70;;;1.50;;
62947;SDS011;51940;52.126;-0.994;2022-10-16T07:50:42;11.50;;;2.60;;
62947;SDS011;51940;52.126;-0.994;2022-10-16T07:53:09;6.50;;;1.60;;
62947;SDS011;51940;52.126;-0.994;2022-10-16T07:55:35;6.80;;;1.80;;
62947;SDS011;51940;52.126;-0.994;2022-10-16T07:58:01;7.80;;;1.80;;
62947;SDS011;51940;52.126;-0.994;2022-10-16T08:00:26;4.80;;;1.50;;
62947;SDS011;51940;52.126;-0.994;2022-10-16T08:02:51;7.50;;;1.50;;
62947;SDS011;51940;52.126;-0.994;2022-10-16T08:05:17;3.80;;;1.50;;
62947;SDS011;51940;52.126;-0.994;2022-10-16T08:07:42;7.00;;;1.60;;
62947;SDS011;51940;52.126;-0.994;2022-10-16T08:10:16;8.60;;;1.70;;
62947;SDS011;51940;52.126;-0.994;2022-10-16T08:12:44;9.60;;;1.70;;
62947;SDS011;51940;52.126;-0.994;2022-10-16T08:15:09;6.20;;;1.30;;
62947;SDS011;51940;52.126;-0.994;2022-10-16T08:17:35;6.30;;;1.50;;
62947;SDS011;51940;52.126;-0.994;2022-10-16T08:20:01;3.70;;;1.20;;
62947;SDS011;51940;52.126;-0.994;2022-10-16T08:22:26;12.20;;;1.50;;
62947;SDS011;51940;52.126;-0.994;2022-10-16T08:24:52;7.80;;;1.70;;
62947;SDS011;51940;52.126;-0.994;2022-10-16T08:27:17;7.30;;;1.30;;
62947;SDS011;51940;52.126;-0.994;2022-10-16T08:29:43;8.70;;;1.70;;
62947;SDS011;51940;52.126;-0.994;2022-10-16T08:32:08;7.30;;;1.40;;
62947;SDS011;51940;52.126;-0.994;2022-10-16T08:34:33;3.30;;;1.10;;
62947;SDS011;51940;52.126;-0.994;2022-10-16T08:36:59;6.90;;;1.20;;
62947;SDS011;51940;52.126;-0.994;2022-10-16T08:39:24;8.40;;;2.10;;
62947;SDS011;51940;52.126;-0.994;2022-10-16T08:50:22;5.60;;;1.40;;
62947;SDS011;51940;52.126;-0.994;2022-10-16T08:52:50;7.50;;;1.30;;
62947;SDS011;51940;52.126;-0.994;2022-10-16T08:57:57;7.40;;;1.60;;
62947;SDS011;51940;52.126;-0.994;2022-10-16T09:00:23;7.50;;;1.30;;
62947;SDS011;51940;52.126;-0.994;2022-10-16T09:02:52;5.60;;;1.50;;
62947;SDS011;51940;52.126;-0.994;2022-10-16T09:11:01;7.30;;;1.80;;
62947;SDS011;51940;52.126;-0.994;2022-10-16T09:13:43;4.80;;;1.50;;
62947;SDS011;51940;52.126;-0.994;2022-10-16T09:16:46;5.80;;;1.20;;
62947;SDS011;51940;52.126;-0.994;2022-10-16T09:19:30;7.30;;;1.40;;
62947;SDS011;51940;52.126;-0.994;2022-10-16T09:22:01;6.10;;;1.20;;
62947;SDS011;51940;52.126;-0.994;2022-10-16T09:24:37;5.60;;;1.10;;
62947;SDS011;51940;52.126;-0.994;2022-10-16T09:27:03;6.30;;;1.70;;
62947;SDS011;51940;52.126;-0.994;2022-10-16T09:29:28;4.30;;;1.40;;
62947;SDS011;51940;52.126;-0.994;2022-10-16T09:31:53;6.70;;;1.50;;
62947;SDS011;51940;52.126;-0.994;2022-10-16T09:34:33;7.20;;;1.40;;
62947;SDS011;51940;52.126;-0.994;2022-10-16T09:37:07;4.30;;;1.30;;
62947;SDS011;51940;52.126;-0.994;2022-10-16T09:39:44;5.90;;;1.60;;
62947;SDS011;51940;52.126;-0.994;2022-10-16T09:42:18;5.40;;;1.30;;
62947;SDS011;51940;52.126;-0.994;2022-10-16T09:44:55;3.90;;;1.10;;
62947;SDS011;51940;52.126;-0.994;2022-10-16T09:47:23;4.40;;;1.50;;
62947;SDS011;51940;52.126;-0.994;2022-10-16T09:49:54;3.70;;;1.20;;
62947;SDS011;51940;52.126;-0.994;2022-10-16T09:52:29;5.40;;;1.60;;
62947;SDS011;51940;52.126;-0.994;2022-10-16T09:54:59;4.50;;;1.20;;
62947;SDS011;51940;52.126;-0.994;2022-10-16T09:57:28;2.60;;;1.00;;
62947;SDS011;51940;52.126;-0.994;2022-10-16T09:59:55;3.20;;;1.20;;
62947;SDS011;51940;52.126;-0.994;2022-10-16T10:02:29;6.90;;;1.20;;
62947;SDS011;51940;52.126;-0.994;2022-10-16T10:04:59;3.90;;;1.40;;
62947;SDS011;51940;52.126;-0.994;2022-10-16T10:07:25;7.70;;;1.60;;
62947;SDS011;51940;52.126;-0.994;2022-10-16T10:09:53;4.50;;;1.00;;
62947;SDS011;51940;52.126;-0.994;2022-10-16T10:12:22;6.80;;;1.10;;
62947;SDS011;51940;52.126;-0.994;2022-10-16T10:14:53;3.70;;;1.00;;
62947;SDS011;51940;52.126;-0.994;2022-10-16T10:22:24;5.30;;;1.60;;
62947;SDS011;51940;52.126;-0.994;2022-10-16T10:27:36;3.40;;;1.10;;
62947;SDS011;51940;52.126;-0.994;2022-10-16T10:30:15;4.40;;;1.40;;
62947;SDS011;51940;52.126;-0.994;2022-10-16T10:33:00;2.60;;;0.90;;
62947;SDS011;51940;52.126;-0.994;2022-10-16T10:35:39;3.70;;;1.00;;
62947;SDS011;51940;52.126;-0.994;2022-10-16T10:47:06;4.40;;;0.90;;
62947;SDS011;51940;52.126;-0.994;2022-10-16T10:54:41;2.40;;;0.70;;
62947;SDS011;51940;52.126;-0.994;2022-10-16T10:57:25;2.10;;;1.10;;
62947;SDS011;51940;52.126;-0.994;2022-10-16T11:03:06;2.90;;;0.80;;
62947;SDS011;51940;52.126;-0.994;2022-10-16T11:08:07;2.50;;;0.70;;
62947;SDS011;51940;52.126;-0.994;2022-10-16T11:10:49;1.80;;;0.90;;
62947;SDS011;51940;52.126;-0.994;2022-10-16T11:16:02;2.20;;;0.80;;
62947;SDS011;51940;52.126;-0.994;2022-10-16T11:18:47;2.80;;;0.60;;
62947;SDS011;51940;52.126;-0.994;2022-10-16T11:21:35;2.00;;;0.80;;
62947;SDS011;51940;52.126;-0.994;2022-10-16T11:24:30;3.20;;;0.80;;
62947;SDS011;51940;52.126;-0.994;2022-10-16T11:27:02;2.80;;;0.60;;
62947;SDS011;51940;52.126;-0.994;2022-10-16T11:29:33;3.80;;;0.80;;
62947;SDS011;51940;52.126;-0.994;2022-10-16T11:32:19;4.00;;;0.70;;
62947;SDS011;51940;52.126;-0.994;2022-10-16T11:34:52;3.20;;;0.90;;
62947;SDS011;51940;52.126;-0.994;2022-10-16T11:37:27;1.60;;;0.70;;
62947;SDS011;51940;52.126;-0.994;2022-10-16T11:40:03;3.00;;;0.70;;
62947;SDS011;51940;52.126;-0.994;2022-10-16T11:42:44;2.20;;;0.70;;
62947;SDS011;51940;52.126;-0.994;2022-10-16T11:48:01;2.00;;;0.70;;
62947;SDS011;51940;52.126;-0.994;2022-10-16T11:50:38;1.20;;;0.60;;
62947;SDS011;51940;52.126;-0.994;2022-10-16T11:53:26;2.10;;;1.10;;
62947;SDS011;51940;52.126;-0.994;2022-10-16T11:56:08;4.00;;;0.80;;
62947;SDS011;51940;52.126;-0.994;2022-10-16T11:58:45;5.10;;;1.00;;
62947;SDS011;51940;52.126;-0.994;2022-10-16T12:01:41;2.70;;;1.20;;
62947;SDS011;51940;52.126;-0.994;2022-10-16T12:04:34;4.60;;;1.00;;
62947;SDS011;51940;52.126;-0.994;2022-10-16T12:07:17;2.80;;;0.90;;
62947;SDS011;51940;52.126;-0.994;2022-10-16T12:09:48;4.60;;;0.90;;
62947;SDS011;51940;52.126;-0.994;2022-10-16T12:15:18;3.80;;;1.00;;
62947;SDS011;51940;52.126;-0.994;2022-10-16T12:17:46;4.90;;;0.80;;
62947;SDS011;51940;52.126;-0.994;2022-10-16T12:22:40;3.80;;;0.90;;
62947;SDS011;51940;52.126;-0.994;2022-10-16T12:25:22;3.40;;;0.90;;
62947;SDS011;51940;52.126;-0.994;2022-10-16T12:30:32;4.70;;;0.90;;
62947;SDS011;51940;52.126;-0.994;2022-10-16T12:33:04;2.80;;;0.90;;
62947;SDS011;51940;52.126;-0.994;2022-10-16T12:35:33;4.90;;;0.90;;
62947;SDS011;51940;52.126;-0.994;2022-10-16T12:38:18;1.80;;;1.00;;
62947;SDS011;51940;52.126;-0.994;2022-10-16T12:41:01;5.40;;;0.90;;
62947;SDS011;51940;52.126;-0.994;2022-10-16T12:48:39;6.10;;;1.00;;
62947;SDS011;51940;52.126;-0.994;2022-10-16T12:51:21;3.30;;;1.00;;
62947;SDS011;51940;52.126;-0.994;2022-10-16T12:53:59;5.00;;;0.90;;
62947;SDS011;51940;52.126;-0.994;2022-10-16T13:02:21;3.00;;;0.80;;
62947;SDS011;51940;52.126;-0.994;2022-10-16T13:06:00;4.80;;;1.00;;
62947;SDS011;51940;52.126;-0.994;2022-10-16T13:11:52;5.10;;;0.90;;
62947;SDS011;51940;52.126;-0.994;2022-10-16T13:14:37;4.80;;;0.90;;
62947;SDS011;51940;52.126;-0.994;2022-10-16T13:18:11;7.10;;;1.30;;
62947;SDS011;51940;52.126;-0.994;2022-10-16T13:20:19;5.40;;;1.20;;
62947;SDS011;51940;52.126;-0.994;2022-10-16T13:25:34;4.40;;;1.10;;
62947;SDS011;51940;52.126;-0.994;2022-10-16T13:28:21;3.80;;;1.00;;
62947;SDS011;51940;52.126;-0.994;2022-10-16T13:30:54;5.00;;;1.00;;
62947;SDS011;51940;52.126;-0.994;2022-10-16T13:33:38;3.70;;;0.80;;
62947;SDS011;51940;52.126;-0.994;2022-10-16T13:36:17;5.20;;;1.10;;
62947;SDS011;51940;52.126;-0.994;2022-10-16T13:38:46;3.90;;;1.00;;
62947;SDS011;51940;52.126;-0.994;2022-10-16T13:41:15;4.40;;;0.80;;
62947;SDS011;51940;52.126;-0.994;2022-10-16T13:43:44;4.80;;;1.20;;
62947;SDS011;51940;52.126;-0.994;2022-10-16T13:48:55;3.40;;;0.80;;
62947;SDS011;51940;52.126;-0.994;2022-10-16T13:51:22;4.00;;;1.00;;
62947;SDS011;51940;52.126;-0.994;2022-10-16T13:53:48;3.70;;;1.00;;
62947;SDS011;51940;52.126;-0.994;2022-10-16T13:56:15;5.50;;;1.10;;
62947;SDS011;51940;52.126;-0.994;2022-10-16T13:58:42;3.30;;;1.20;;
62947;SDS011;51940;52.126;-0.994;2022-10-16T14:01:16;4.40;;;1.00;;
62947;SDS011;51940;52.126;-0.994;2022-10-16T14:03:45;4.20;;;1.10;;
62947;SDS011;51940;52.126;-0.994;2022-10-16T14:06:12;3.40;;;0.80;;
62947;SDS011;51940;52.126;-0.994;2022-10-16T14:09:24;4.80;;;1.20;;
62947;SDS011;51940;52.126;-0.994;2022-10-16T14:11:32;3.60;;;1.00;;
62947;SDS011;51940;52.126;-0.994;2022-10-16T14:14:02;8.40;;;1.20;;
62947;SDS011;51940;52.126;-0.994;2022-10-16T14:16:29;7.90;;;1.20;;
62947;SDS011;51940;52.126;-0.994;2022-10-16T14:21:30;5.70;;;1.10;;
62947;SDS011;51940;52.126;-0.994;2022-10-16T14:23:57;4.30;;;1.10;;
62947;SDS011;51940;52.126;-0.994;2022-10-16T14:26:23;6.20;;;1.50;;
62947;SDS011;51940;52.126;-0.994;2022-10-16T14:29:02;6.30;;;1.10;;
62947;SDS011;51940;52.126;-0.994;2022-10-16T14:31:35;4.90;;;0.90;;
62947;SDS011;51940;52.126;-0.994;2022-10-16T14:34:02;6.80;;;1.20;;
62947;SDS011;51940;52.126;-0.994;2022-10-16T14:36:27;6.00;;;1.10;;
62947;SDS011;51940;52.126;-0.994;2022-10-16T14:38:59;5.40;;;1.20;;
62947;SDS011;51940;52.126;-0.994;2022-10-16T14:41:30;6.10;;;1.10;;
62947;SDS011;51940;52.126;-0.994;2022-10-16T14:44:05;6.40;;;1.10;;
62947;SDS011;51940;52.126;-0.994;2022-10-16T14:46:32;4.30;;;1.00;;
62947;SDS011;51940;52.126;-0.994;2022-10-16T14:49:02;5.70;;;1.00;;
62947;SDS011;51940;52.126;-0.994;2022-10-16T14:51:30;3.90;;;1.10;;
62947;SDS011;51940;52.126;-0.994;2022-10-16T14:53:55;6.10;;;1.20;;
62947;SDS011;51940;52.126;-0.994;2022-10-16T14:56:22;7.50;;;1.90;;
62947;SDS011;51940;52.126;-0.994;2022-10-16T14:58:49;3.60;;;1.20;;
62947;SDS011;51940;52.126;-0.994;2022-10-16T15:01:16;7.60;;;1.10;;
62947;SDS011;51940;52.126;-0.994;2022-10-16T15:03:42;4.90;;;1.10;;
62947;SDS011;51940;52.126;-0.994;2022-10-16T15:06:09;6.80;;;1.30;;
62947;SDS011;51940;52.126;-0.994;2022-10-16T15:08:36;6.50;;;1.10;;
62947;SDS011;51940;52.126;-0.994;2022-10-16T15:11:02;5.60;;;1.20;;
62947;SDS011;51940;52.126;-0.994;2022-10-16T15:13:27;4.40;;;1.10;;
62947;SDS011;51940;52.126;-0.994;2022-10-16T15:15:52;6.60;;;1.90;;
62947;SDS011;51940;52.126;-0.994;2022-10-16T15:18:18;6.60;;;1.20;;
62947;SDS011;51940;52.126;-0.994;2022-10-16T15:20:48;6.50;;;1.20;;
62947;SDS011;51940;52.126;-0.994;2022-10-16T15:23:16;7.30;;;1.30;;
62947;SDS011;51940;52.126;-0.994;2022-10-16T15:28:10;4.10;;;1.20;;
62947;SDS011;51940;52.126;-0.994;2022-10-16T15:30:37;5.30;;;1.00;;
62947;SDS011;51940;52.126;-0.994;2022-10-16T15:33:04;8.70;;;1.30;;
62947;SDS011;51940;52.126;-0.994;2022-10-16T15:35:30;9.00;;;1.40;;
62947;SDS011;51940;52.126;-0.994;2022-10-16T15:37:56;6.60;;;1.30;;
62947;SDS011;51940;52.126;-0.994;2022-10-16T15:40:22;7.50;;;1.20;;
62947;SDS011;51940;52.126;-0.994;2022-10-16T15:42:48;3.20;;;1.00;;
62947;SDS011;51940;52.126;-0.994;2022-10-16T15:45:14;5.10;;;1.30;;
62947;SDS011;51940;52.126;-0.994;2022-10-16T15:47:40;9.20;;;1.40;;
62947;SDS011;51940;52.126;-0.994;2022-10-16T15:50:08;6.80;;;1.20;;
62947;SDS011;51940;52.126;-0.994;2022-10-16T15:52:37;6.20;;;1.30;;
62947;SDS011;51940;52.126;-0.994;2022-10-16T15:55:04;7.60;;;1.40;;
62947;SDS011;51940;52.126;-0.994;2022-10-16T15:57:31;10.80;;;1.90;;
62947;SDS011;51940;52.126;-0.994;2022-10-16T15:59:57;6.10;;;1.60;;
62947;SDS011;51940;52.126;-0.994;2022-10-16T16:02:22;4.60;;;1.50;;
62947;SDS011;51940;52.126;-0.994;2022-10-16T16:04:47;8.00;;;1.40;;
62947;SDS011;51940;52.126;-0.994;2022-10-16T16:07:13;7.90;;;1.40;;
62947;SDS011;51940;52.126;-0.994;2022-10-16T16:09:38;3.70;;;1.10;;
62947;SDS011;51940;52.126;-0.994;2022-10-16T16:12:03;9.50;;;1.60;;
62947;SDS011;51940;52.126;-0.994;2022-10-16T16:14:29;9.40;;;1.80;;
62947;SDS011;51940;52.126;-0.994;2022-10-16T16:16:55;9.20;;;1.80;;
62947;SDS011;51940;52.126;-0.994;2022-10-16T16:19:21;8.20;;;1.40;;
62947;SDS011;51940;52.126;-0.994;2022-10-16T16:21:47;10.20;;;1.70;;
62947;SDS011;51940;52.126;-0.994;2022-10-16T16:24:15;11.00;;;2.00;;
62947;SDS011;51940;52.126;-0.994;2022-10-16T16:26:41;9.80;;;2.20;;
62947;SDS011;51940;52.126;-0.994;2022-10-16T16:29:12;8.70;;;2.30;;
62947;SDS011;51940;52.126;-0.994;2022-10-16T16:31:39;8.60;;;2.20;;
62947;SDS011;51940;52.126;-0.994;2022-10-16T16:34:05;10.40;;;2.10;;
62947;SDS011;51940;52.126;-0.994;2022-10-16T16:36:31;12.30;;;2.20;;
62947;SDS011;51940;52.126;-0.994;2022-10-16T16:38:57;10.70;;;2.30;;